createdAt,value
2023-03-30T00:01:19.735Z,98815.09
2023-03-30T00:03:49.423Z,98826.53
2023-03-30T00:06:24.771Z,98811.34
2023-03-30T00:08:57.581Z,98813.59
2023-03-30T00:11:26.440Z,98812.56
2023-03-30T00:13:53.672Z,98812.13
2023-03-30T00:16:22.102Z,98805.03
2023-03-30T00:18:49.336Z,98807.09
2023-03-30T00:21:18.475Z,98808.81
2023-03-30T00:23:48.535Z,98801.72
2023-03-30T00:26:16.202Z,98786.59
2023-03-30T00:28:43.259Z,98780.56
2023-03-30T00:31:11.582Z,98779.78
2023-03-30T00:33:46.430Z,98784.84
2023-03-30T00:36:15.009Z,98786.91
2023-03-30T00:38:42.372Z,98785.28
2023-03-30T00:41:09.551Z,98783.44
2023-03-30T00:43:59.038Z,98785.97
2023-03-30T00:46:26.528Z,98786.16
2023-03-30T00:48:58.006Z,98794.50
2023-03-30T00:51:27.297Z,98788.25
2023-03-30T00:54:00.446Z,98791.19
2023-03-30T00:56:31.040Z,98789.94
2023-03-30T00:58:58.608Z,98786.78
2023-03-30T01:01:29.023Z,98782.81
2023-03-30T01:04:02.693Z,98782.22
2023-03-30T01:06:31.696Z,98773.22
2023-03-30T01:08:59.279Z,98766.78
2023-03-30T01:11:27.110Z,98773.50
2023-03-30T01:14:00.165Z,98772.00
2023-03-30T01:16:36.339Z,98774.72
2023-03-30T01:19:48.490Z,98779.53
2023-03-30T01:22:50.711Z,98767.47
2023-03-30T01:25:40.763Z,98770.19
2023-03-30T01:28:21.449Z,98754.13
2023-03-30T01:31:22.051Z,98762.06
2023-03-30T01:34:25.690Z,98741.00
2023-03-30T01:37:37.105Z,98753.72
2023-03-30T01:40:22.338Z,98751.44
2023-03-30T01:43:14.652Z,98747.44
2023-03-30T01:45:47.939Z,98742.94
2023-03-30T01:48:30.063Z,98744.97
2023-03-30T01:51:04.936Z,98752.72
2023-03-30T01:53:47.119Z,98758.13
2023-03-30T01:56:22.155Z,98753.97
2023-03-30T01:58:55.567Z,98759.81
2023-03-30T02:01:24.528Z,98771.72
2023-03-30T02:03:56.224Z,98768.56
2023-03-30T02:06:43.687Z,98775.84
2023-03-30T02:09:17.370Z,98765.44
2023-03-30T02:11:48.626Z,98771.25
2023-03-30T02:14:21.989Z,98777.91
2023-03-30T02:16:54.427Z,98770.22
2023-03-30T02:19:22.029Z,98788.13
2023-03-30T02:21:50.716Z,98797.72
2023-03-30T02:24:23.180Z,98803.34
2023-03-30T02:26:52.394Z,98801.25
2023-03-30T02:29:21.581Z,98811.06
2023-03-30T02:31:54.002Z,98821.47
2023-03-30T02:34:48.909Z,98813.84
2023-03-30T02:37:48.026Z,98814.28
2023-03-30T02:40:36.158Z,98817.03
2023-03-30T02:43:42.459Z,98817.66
2023-03-30T02:46:27.666Z,98810.19
2023-03-30T02:49:18.131Z,98830.41
2023-03-30T02:51:51.737Z,98824.97
2023-03-30T02:54:31.481Z,98821.47
2023-03-30T02:57:18.045Z,98817.72
2023-03-30T03:00:22.539Z,98825.63
2023-03-30T03:02:57.929Z,98822.50
2023-03-30T03:05:27.255Z,98834.97
2023-03-30T03:07:55.222Z,98833.94
2023-03-30T03:10:22.386Z,98837.91
2023-03-30T03:12:50.165Z,98839.53
2023-03-30T03:15:17.153Z,98847.66
2023-03-30T03:17:45.599Z,98850.97
2023-03-30T03:20:13.311Z,98861.00
2023-03-30T03:22:40.241Z,98858.91
2023-03-30T03:25:08.959Z,98859.09
2023-03-30T03:27:35.931Z,98858.28
2023-03-30T03:30:04.236Z,98867.22
2023-03-30T03:32:31.445Z,98866.19
2023-03-30T03:34:58.404Z,98870.34
2023-03-30T03:37:25.342Z,98880.13
2023-03-30T03:39:52.287Z,98873.03
2023-03-30T03:42:19.490Z,98872.63
2023-03-30T03:44:46.401Z,98870.16
2023-03-30T03:47:16.016Z,98869.13
2023-03-30T03:49:43.501Z,98869.91
2023-03-30T03:52:11.382Z,98869.31
2023-03-30T03:54:38.619Z,98861.41
2023-03-30T03:57:06.651Z,98868.69
2023-03-30T03:59:33.789Z,98862.44
2023-03-30T04:02:00.779Z,98851.25
2023-03-30T04:04:28.109Z,98862.28
2023-03-30T04:06:55.028Z,98861.66
2023-03-30T04:09:22.428Z,98868.50
2023-03-30T04:11:49.783Z,98869.97
2023-03-30T04:14:16.976Z,98871.19
2023-03-30T04:16:44.159Z,98868.91
2023-03-30T04:19:12.897Z,98886.56
2023-03-30T04:21:41.389Z,98890.31
2023-03-30T04:24:12.406Z,98890.13
2023-03-30T04:26:41.967Z,98897.78
2023-03-30T04:29:09.130Z,98901.94
2023-03-30T04:31:38.517Z,98906.09
2023-03-30T04:34:05.579Z,98910.66
2023-03-30T04:36:32.486Z,98907.53
2023-03-30T04:39:00.740Z,98912.09
2023-03-30T04:41:33.668Z,98919.53
2023-03-30T04:44:06.540Z,98927.44
2023-03-30T04:46:34.272Z,98928.88
2023-03-30T04:49:01.373Z,98931.75
2023-03-30T04:51:29.126Z,98927.19
2023-03-30T04:53:56.168Z,98926.78
2023-03-30T04:56:23.156Z,98927.34
2023-03-30T04:58:50.263Z,98921.53
2023-03-30T05:01:17.195Z,98916.91
2023-03-30T05:03:44.179Z,98911.91
2023-03-30T05:06:11.682Z,98915.66
2023-03-30T05:08:40.602Z,98921.44
2023-03-30T05:11:08.886Z,98923.31
2023-03-30T05:13:35.901Z,98926.63
2023-03-30T05:16:02.814Z,98940.50
2023-03-30T05:18:29.713Z,98943.59
2023-03-30T05:20:58.843Z,98953.94
2023-03-30T05:23:26.500Z,98950.19
2023-03-30T05:25:55.384Z,98955.81
2023-03-30T05:28:23.124Z,98961.78
2023-03-30T05:30:56.276Z,98966.09
2023-03-30T05:33:23.791Z,98974.78
2023-03-30T05:35:51.841Z,98982.44
2023-03-30T05:38:18.793Z,98977.63
2023-03-30T05:40:46.161Z,98978.41
2023-03-30T05:43:13.215Z,98970.06
2023-03-30T05:45:40.237Z,98979.59
2023-03-30T05:48:07.484Z,98983.31
2023-03-30T05:50:34.508Z,98989.72
2023-03-30T05:53:01.773Z,98985.16
2023-03-30T05:55:29.160Z,98977.53
2023-03-30T05:57:57.052Z,98986.25
2023-03-30T06:00:24.053Z,98983.81
2023-03-30T06:02:52.228Z,98995.47
2023-03-30T06:05:19.713Z,98996.38
2023-03-30T06:07:46.736Z,98986.84
2023-03-30T06:10:13.814Z,98992.06
2023-03-30T06:12:40.756Z,98993.31
2023-03-30T06:15:09.409Z,98994.78
2023-03-30T06:17:37.310Z,98989.00
2023-03-30T06:20:11.677Z,98984.50
2023-03-30T06:22:42.262Z,98987.41
2023-03-30T06:25:10.509Z,98998.69
2023-03-30T06:27:37.611Z,98985.03
2023-03-30T06:30:05.461Z,98998.00
2023-03-30T06:32:32.741Z,99000.13
2023-03-30T06:34:59.857Z,98999.38
2023-03-30T06:37:26.867Z,99004.78
2023-03-30T06:39:54.259Z,99003.13
2023-03-30T06:42:21.571Z,99006.91
2023-03-30T06:44:49.946Z,99011.88
2023-03-30T06:47:17.113Z,99019.41
2023-03-30T06:49:44.055Z,99016.69
2023-03-30T06:52:11.832Z,99025.81
2023-03-30T06:54:38.758Z,99026.06
2023-03-30T06:57:05.796Z,99030.00
2023-03-30T06:59:34.639Z,99026.91
2023-03-30T07:02:02.252Z,99017.56
2023-03-30T07:04:29.560Z,99023.19
2023-03-30T07:06:58.263Z,99024.44
2023-03-30T07:09:26.572Z,99029.22
2023-03-30T07:11:55.889Z,99029.47
2023-03-30T07:14:23.737Z,99031.16
2023-03-30T07:16:51.618Z,99031.16
2023-03-30T07:19:18.871Z,99034.06
2023-03-30T07:21:45.972Z,99034.28
2023-03-30T07:24:12.993Z,99033.28
2023-03-30T07:26:39.890Z,99040.56
2023-03-30T07:29:07.634Z,99040.75
2023-03-30T07:31:37.356Z,99038.69
2023-03-30T07:34:04.627Z,99046.19
2023-03-30T07:36:31.524Z,99041.41
2023-03-30T07:38:58.832Z,99042.44
2023-03-30T07:41:25.959Z,99043.28
2023-03-30T07:43:52.886Z,99054.53
2023-03-30T07:46:20.487Z,99064.53
2023-03-30T07:48:47.418Z,99059.75
2023-03-30T07:51:15.206Z,99061.00
2023-03-30T07:53:42.502Z,99060.16
2023-03-30T07:56:09.491Z,99064.34
2023-03-30T07:58:37.260Z,99069.31
2023-03-30T08:01:05.440Z,99072.44
2023-03-30T08:03:33.389Z,99066.81
2023-03-30T08:06:06.743Z,99067.47
2023-03-30T08:08:34.251Z,99065.81
2023-03-30T08:11:02.360Z,99067.88
2023-03-30T08:13:29.679Z,99076.00
2023-03-30T08:15:56.855Z,99079.34
2023-03-30T08:18:23.869Z,99089.53
2023-03-30T08:20:54.324Z,99079.31
2023-03-30T08:23:22.268Z,99084.06
2023-03-30T08:25:52.892Z,99079.88
2023-03-30T08:28:21.689Z,99087.81
2023-03-30T08:30:49.014Z,99081.13
2023-03-30T08:33:17.170Z,99089.88
2023-03-30T08:35:48.346Z,99076.94
2023-03-30T08:38:17.577Z,99092.53
2023-03-30T08:40:47.778Z,99088.94
2023-03-30T08:43:41.753Z,99093.50
2023-03-30T08:46:16.341Z,99079.72
2023-03-30T08:48:43.987Z,99089.69
2023-03-30T08:51:27.957Z,99094.25
2023-03-30T08:54:02.132Z,99086.31
2023-03-30T08:56:37.795Z,99086.22
2023-03-30T08:59:43.562Z,99084.03
2023-03-30T09:02:29.194Z,99102.34
2023-03-30T09:05:02.280Z,99101.69
2023-03-30T09:07:34.499Z,99101.28
2023-03-30T09:10:01.936Z,99105.59
2023-03-30T09:12:48.610Z,99097.13
2023-03-30T09:15:31.730Z,99099.78
2023-03-30T09:18:20.516Z,99105.97
2023-03-30T09:20:49.009Z,99100.66
2023-03-30T09:23:17.902Z,99096.59
2023-03-30T09:25:51.407Z,99100.09
2023-03-30T09:28:45.816Z,99104.16
2023-03-30T09:31:25.440Z,99094.25
2023-03-30T09:34:40.525Z,99100.22
2023-03-30T09:37:13.293Z,99102.34
2023-03-30T09:39:41.554Z,99088.09
2023-03-30T09:42:45.833Z,99101.38
2023-03-30T09:45:22.859Z,99106.50
2023-03-30T09:47:49.807Z,99098.28
2023-03-30T09:50:29.588Z,99107.03
2023-03-30T09:53:01.466Z,99117.09
2023-03-30T09:55:35.312Z,99112.41
2023-03-30T09:58:26.838Z,99118.06
2023-03-30T10:01:12.816Z,99118.50
2023-03-30T10:03:42.396Z,99118.25
2023-03-30T10:06:18.094Z,99120.75
2023-03-30T10:08:52.369Z,99121.72
2023-03-30T10:11:44.922Z,99129.56
2023-03-30T10:14:31.863Z,99140.91
2023-03-30T10:17:00.115Z,99141.97
2023-03-30T10:19:28.245Z,99148.22
2023-03-30T10:22:00.295Z,99140.28
2023-03-30T10:24:31.792Z,99146.88
2023-03-30T10:27:09.938Z,99151.31
2023-03-30T10:29:37.113Z,99152.31
2023-03-30T10:32:21.997Z,99154.47
2023-03-30T10:35:04.701Z,99149.03
2023-03-30T10:37:37.691Z,99156.16
2023-03-30T10:40:18.397Z,99154.19
2023-03-30T10:42:50.154Z,99150.94
2023-03-30T10:45:22.652Z,99152.97
2023-03-30T10:47:49.585Z,99168.09
2023-03-30T10:50:41.407Z,99164.78
2023-03-30T10:54:01.219Z,99162.81
2023-03-30T10:56:49.282Z,99168.03
2023-03-30T10:59:35.039Z,99158.72
2023-03-30T11:02:29.844Z,99166.13
2023-03-30T11:05:12.791Z,99168.34
2023-03-30T11:08:18.133Z,99168.38
2023-03-30T11:10:50.351Z,99166.44
2023-03-30T11:13:54.188Z,99162.75
2023-03-30T11:16:47.888Z,99157.09
2023-03-30T11:19:26.622Z,99159.81
2023-03-30T11:22:22.573Z,99158.72
2023-03-30T11:24:52.075Z,99154.91
2023-03-30T11:27:40.659Z,99158.63
2023-03-30T11:30:26.993Z,99147.53
2023-03-30T11:32:58.051Z,99144.81
2023-03-30T11:35:37.052Z,99151.66
2023-03-30T11:38:21.598Z,99155.56
2023-03-30T11:40:56.343Z,99167.03
2023-03-30T11:43:27.334Z,99164.06
2023-03-30T11:47:10.816Z,99154.25
2023-03-30T11:49:57.912Z,99171.38
2023-03-30T11:53:07.980Z,99169.25
2023-03-30T11:55:55.229Z,99173.13
2023-03-30T11:59:05.688Z,99169.25
2023-03-30T12:01:48.241Z,99184.03
2023-03-30T12:04:29.561Z,99174.69
2023-03-30T12:07:01.388Z,99176.38
2023-03-30T12:09:45.557Z,99171.06
2023-03-30T12:12:16.262Z,99174.75
2023-03-30T12:15:03.387Z,99169.09
2023-03-30T12:17:50.782Z,99182.88
2023-03-30T12:20:49.206Z,99173.03
2023-03-30T12:23:34.534Z,99165.66
2023-03-30T12:26:19.813Z,99182.69
2023-03-30T12:31:19.022Z,99175.53
2023-03-30T12:33:53.835Z,99169.75
2023-03-30T12:36:40.215Z,99171.00
2023-03-30T12:39:18.027Z,99178.25
2023-03-30T12:41:50.775Z,99168.66
2023-03-30T12:44:52.058Z,99165.59
2023-03-30T12:47:51.864Z,99159.94
2023-03-30T12:50:37.434Z,99164.72
2023-03-30T12:53:12.105Z,99156.88
2023-03-30T12:56:20.598Z,99155.69
2023-03-30T12:59:26.336Z,99152.34
2023-03-30T13:02:32.744Z,99138.38
2023-03-30T13:05:00.095Z,99131.91
2023-03-30T13:07:32.239Z,99131.03
2023-03-30T13:10:06.372Z,99126.91
2023-03-30T13:12:36.261Z,99122.88
2023-03-30T13:15:17.637Z,99130.13
2023-03-30T13:17:57.469Z,99119.84
2023-03-30T13:20:37.164Z,99110.47
2023-03-30T13:23:27.835Z,99101.59
2023-03-30T13:25:57.890Z,99104.09
2023-03-30T13:29:03.635Z,99108.75
2023-03-30T13:31:58.079Z,99104.59
2023-03-30T13:35:29.991Z,99108.75
2023-03-30T13:38:28.369Z,99120.16
2023-03-30T13:41:19.803Z,99115.81
2023-03-30T13:44:07.988Z,99130.78
2023-03-30T13:46:47.046Z,99128.88
2023-03-30T13:49:38.727Z,99131.16
2023-03-30T13:52:17.457Z,99137.66
2023-03-30T13:54:46.172Z,99134.81
2023-03-30T13:57:31.980Z,99120.59
2023-03-30T14:00:28.631Z,99130.44
2023-03-30T14:02:55.736Z,99118.81
2023-03-30T14:05:28.028Z,99123.31
2023-03-30T14:07:58.823Z,99117.75
2023-03-30T14:10:27.251Z,99118.34
2023-03-30T14:12:56.997Z,99116.69
2023-03-30T14:15:34.004Z,99101.97
2023-03-30T14:18:05.110Z,99095.69
2023-03-30T14:20:55.882Z,99095.91
2023-03-30T14:23:38.169Z,99101.91
2023-03-30T14:26:29.390Z,99102.78
2023-03-30T14:29:10.880Z,99106.91
2023-03-30T14:31:41.571Z,99110.97
2023-03-30T14:34:30.815Z,99103.34
2023-03-30T14:37:05.607Z,99095.38
2023-03-30T14:39:42.788Z,99088.47
2023-03-30T14:42:24.870Z,99087.47
2023-03-30T14:44:56.209Z,99087.50
2023-03-30T14:47:26.087Z,99102.66
2023-03-30T14:50:00.654Z,99099.91
2023-03-30T14:52:42.102Z,99101.91
2023-03-30T14:55:17.566Z,99097.53
2023-03-30T14:57:46.988Z,99093.47
2023-03-30T15:00:19.279Z,99085.34
2023-03-30T15:02:51.004Z,99080.97
2023-03-30T15:05:19.414Z,99074.91
2023-03-30T15:07:49.801Z,99076.50
2023-03-30T15:10:51.353Z,99077.31
2023-03-30T15:13:32.855Z,99070.69
2023-03-30T15:16:01.293Z,99078.63
2023-03-30T15:18:30.865Z,99090.16
2023-03-30T15:20:59.709Z,99087.31
2023-03-30T15:23:35.156Z,99083.22
2023-03-30T15:26:04.530Z,99080.84
2023-03-30T15:28:39.048Z,99080.63
2023-03-30T15:31:06.286Z,99069.69
2023-03-30T15:33:42.036Z,99072.72
2023-03-30T15:36:36.475Z,99075.75
2023-03-30T15:39:19.201Z,99067.94
2023-03-30T15:41:50.977Z,99064.06
2023-03-30T15:44:20.912Z,99064.53
2023-03-30T15:46:51.597Z,99059.16
2023-03-30T15:49:23.581Z,99063.31
2023-03-30T15:51:58.943Z,99057.59
2023-03-30T15:54:41.548Z,99051.97
2023-03-30T15:57:13.434Z,99057.91
2023-03-30T15:59:52.771Z,99041.91
2023-03-30T16:02:32.632Z,99055.28
2023-03-30T16:05:05.496Z,99041.63
2023-03-30T16:07:33.319Z,99050.88
2023-03-30T16:10:00.499Z,99046.28
2023-03-30T16:12:30.194Z,99045.06
2023-03-30T16:14:58.654Z,99056.47
2023-03-30T16:17:25.939Z,99054.34
2023-03-30T16:19:52.888Z,99048.19
2023-03-30T16:22:19.968Z,99035.59
2023-03-30T16:24:48.516Z,99041.78
2023-03-30T16:27:15.671Z,99042.63
2023-03-30T16:29:42.997Z,99037.63
2023-03-30T16:32:09.968Z,99036.56
2023-03-30T16:34:37.318Z,99032.28
2023-03-30T16:37:04.292Z,99032.88
2023-03-30T16:39:31.511Z,99023.72
2023-03-30T16:41:58.633Z,99035.13
2023-03-30T16:44:26.186Z,99023.06
2023-03-30T16:46:53.640Z,99023.56
2023-03-30T16:49:24.697Z,99014.31
2023-03-30T16:51:55.363Z,99012.69
2023-03-30T16:54:32.091Z,99012.31
2023-03-30T16:57:02.004Z,99009.34
2023-03-30T16:59:31.127Z,99010.09
2023-03-30T17:01:58.970Z,99005.47
2023-03-30T17:04:26.830Z,99007.59
2023-03-30T17:06:56.549Z,99006.28
2023-03-30T17:09:23.630Z,99001.19
2023-03-30T17:11:51.594Z,98994.56
2023-03-30T17:14:20.477Z,98991.38
2023-03-30T17:16:47.570Z,98984.25
2023-03-30T17:19:15.036Z,98979.50
2023-03-30T17:21:46.289Z,98978.69
2023-03-30T17:24:15.404Z,98970.75
2023-03-30T17:26:43.134Z,98972.28
2023-03-30T17:29:11.271Z,98966.47
2023-03-30T17:31:46.044Z,98962.81
2023-03-30T17:34:13.303Z,98966.25
2023-03-30T17:36:40.410Z,98964.97
2023-03-30T17:39:07.562Z,98959.38
2023-03-30T17:41:34.478Z,98953.22
2023-03-30T17:44:01.374Z,98956.44
2023-03-30T17:46:28.640Z,98955.22
2023-03-30T17:48:55.769Z,98953.22
2023-03-30T17:51:22.641Z,98952.03
2023-03-30T17:53:49.748Z,98943.97
2023-03-30T17:56:16.670Z,98933.31
2023-03-30T17:58:43.584Z,98936.03
2023-03-30T18:01:13.113Z,98928.56
2023-03-30T18:03:40.202Z,98932.56
2023-03-30T18:06:07.811Z,98927.28
2023-03-30T18:08:36.336Z,98923.13
2023-03-30T18:11:04.865Z,98923.72
2023-03-30T18:13:32.432Z,98930.06
2023-03-30T18:16:01.993Z,98927.22
2023-03-30T18:18:31.352Z,98924.38
2023-03-30T18:21:04.935Z,98925.53
2023-03-30T18:23:37.628Z,98918.63
2023-03-30T18:26:10.340Z,98922.50
2023-03-30T18:28:40.711Z,98915.03
2023-03-30T18:31:08.983Z,98902.97
2023-03-30T18:33:36.248Z,98902.22
2023-03-30T18:36:06.500Z,98900.56
2023-03-30T18:38:34.076Z,98891.22
2023-03-30T18:41:01.660Z,98901.69
2023-03-30T18:43:28.874Z,98883.38
2023-03-30T18:46:00.001Z,98876.75
2023-03-30T18:48:29.047Z,98868.22
2023-03-30T18:50:57.005Z,98869.81
2023-03-30T18:53:28.090Z,98870.88
2023-03-30T18:55:58.793Z,98865.28
2023-03-30T18:58:28.958Z,98868.44
2023-03-30T19:00:56.585Z,98860.41
2023-03-30T19:03:25.026Z,98862.25
2023-03-30T19:05:52.559Z,98851.28
2023-03-30T19:08:22.814Z,98844.53
2023-03-30T19:10:56.032Z,98845.97
2023-03-30T19:13:25.533Z,98850.50
2023-03-30T19:15:53.703Z,98837.53
2023-03-30T19:18:21.078Z,98837.69
2023-03-30T19:20:50.253Z,98832.38
2023-03-30T19:23:19.225Z,98840.22
2023-03-30T19:25:46.364Z,98832.53
2023-03-30T19:28:15.616Z,98839.75
2023-03-30T19:30:43.460Z,98833.72
2023-03-30T19:33:19.960Z,98822.84
2023-03-30T19:35:47.532Z,98812.41
2023-03-30T19:38:15.877Z,98809.09
2023-03-30T19:40:43.383Z,98806.50
2023-03-30T19:43:10.772Z,98796.94
2023-03-30T19:45:38.308Z,98788.16
2023-03-30T19:48:05.391Z,98792.53
2023-03-30T19:50:32.607Z,98789.00
2023-03-30T19:53:00.040Z,98781.53
2023-03-30T19:55:28.302Z,98775.28
2023-03-30T19:57:56.085Z,98764.78
2023-03-30T20:00:23.919Z,98764.19
2023-03-30T20:02:54.096Z,98758.94
2023-03-30T20:05:24.028Z,98755.13
2023-03-30T20:07:51.771Z,98749.47
2023-03-30T20:10:24.028Z,98744.50
2023-03-30T20:12:52.322Z,98737.06
2023-03-30T20:15:21.872Z,98731.41
2023-03-30T20:17:49.047Z,98736.84
2023-03-30T20:20:23.075Z,98731.25
2023-03-30T20:22:53.782Z,98725.22
2023-03-30T20:25:22.251Z,98718.38
2023-03-30T20:27:49.652Z,98711.06
2023-03-30T20:30:17.368Z,98710.91
2023-03-30T20:32:48.421Z,98698.03
2023-03-30T20:35:25.768Z,98689.25
2023-03-30T20:37:53.008Z,98673.78
2023-03-30T20:40:21.275Z,98674.59
2023-03-30T20:42:48.613Z,98669.66
2023-03-30T20:45:17.801Z,98662.56
2023-03-30T20:47:50.355Z,98650.28
2023-03-30T20:50:17.470Z,98655.94
2023-03-30T20:52:44.375Z,98646.13
2023-03-30T20:55:11.677Z,98646.59
2023-03-30T20:57:38.921Z,98628.50
2023-03-30T21:00:07.886Z,98625.78
2023-03-30T21:02:35.083Z,98620.59
2023-03-30T21:05:02.505Z,98613.97
2023-03-30T21:07:30.020Z,98609.81
2023-03-30T21:09:56.949Z,98605.22
2023-03-30T21:12:23.830Z,98593.53
2023-03-30T21:14:50.735Z,98594.03
2023-03-30T21:17:17.716Z,98590.69
2023-03-30T21:19:44.931Z,98585.75
2023-03-30T21:22:11.808Z,98563.44
2023-03-30T21:24:38.858Z,98562.25
2023-03-30T21:27:05.958Z,98546.78
2023-03-30T21:29:33.037Z,98540.53
2023-03-30T21:31:59.954Z,98537.84
2023-03-30T21:34:26.827Z,98530.72
2023-03-30T21:36:54.127Z,98522.44
2023-03-30T21:39:21.391Z,98520.34
2023-03-30T21:41:48.352Z,98509.47
2023-03-30T21:44:15.271Z,98505.94
2023-03-30T21:46:42.335Z,98501.59
2023-03-30T21:49:09.320Z,98496.25
2023-03-30T21:51:36.204Z,98486.00
2023-03-30T21:54:03.558Z,98479.97
2023-03-30T21:56:31.389Z,98471.84
2023-03-30T21:58:59.487Z,98471.25
2023-03-30T22:01:26.997Z,98460.84
2023-03-30T22:03:55.210Z,98449.63
2023-03-30T22:06:23.294Z,98429.25
2023-03-30T22:08:51.093Z,98430.19
2023-03-30T22:11:21.921Z,98417.06
2023-03-30T22:13:49.980Z,98407.75
2023-03-30T22:16:22.737Z,98406.72
2023-03-30T22:18:51.456Z,98397.00
2023-03-30T22:21:25.074Z,98393.09
2023-03-30T22:23:55.023Z,98378.72
2023-03-30T22:26:22.523Z,98371.63
2023-03-30T22:28:49.703Z,98371.03
2023-03-30T22:31:17.036Z,98352.06
2023-03-30T22:33:44.381Z,98351.81
2023-03-30T22:36:24.039Z,98342.97
2023-03-30T22:38:52.328Z,98333.88
2023-03-30T22:41:24.299Z,98328.00
2023-03-30T22:43:53.978Z,98317.75
2023-03-30T22:46:22.482Z,98317.16
2023-03-30T22:48:50.228Z,98308.19
2023-03-30T22:51:23.770Z,98305.81
2023-03-30T22:53:50.730Z,98297.19
2023-03-30T22:56:17.981Z,98291.78
2023-03-30T22:58:44.944Z,98282.50
2023-03-30T23:01:12.393Z,98285.06
2023-03-30T23:03:39.809Z,98273.63
2023-03-30T23:06:08.235Z,98270.56
2023-03-30T23:08:36.035Z,98255.81
2023-03-30T23:11:06.709Z,98246.88
2023-03-30T23:13:42.309Z,98234.25
2023-03-30T23:16:09.461Z,98224.94
2023-03-30T23:18:36.980Z,98221.19
2023-03-30T23:21:06.980Z,98208.81
2023-03-30T23:23:36.321Z,98204.19
2023-03-30T23:26:10.073Z,98198.41
2023-03-30T23:28:42.224Z,98187.66
2023-03-30T23:31:11.027Z,98186.81
2023-03-30T23:33:38.283Z,98177.66
2023-03-30T23:36:06.677Z,98171.88
2023-03-30T23:38:34.123Z,98157.75
2023-03-30T23:41:01.583Z,98149.50
2023-03-30T23:43:28.553Z,98139.13
2023-03-30T23:45:56.032Z,98133.81
2023-03-30T23:48:23.082Z,98136.16
2023-03-30T23:50:50.218Z,98127.81
2023-03-30T23:53:19.878Z,98116.03
2023-03-30T23:55:50.353Z,98110.50
2023-03-30T23:58:20.895Z,98104.28
